Hill Air Force Base
KHIF : now visible

Airfield :











YOU CAN JOIN US ON...

 
LOGIN :

Register | Disclaimer

   EN    FR    IT 

 









Legend :    VFR   Marginal VFR   IFR   Intensive IFR   Very Intensive IFR
Visi :
Ceiling :
>= 8 km
>= 3000ft
5 to 8 km
1000 to 3000 ft
1500m to 5 km
500 to 1000 ft
800 to 1500m
200 to 500 ft
< 800m
< 200 ft
Symbols :   Thunderstorms  Fog  Heavy snow  Heavy precipitations  Wind > 20 kt






- Airport Elevation : 4789 ft


KHIF - Hill Air Force Base

CURRENT METAR :
  • 080855Z 00000KT 10SM OVC014 M03/M03 A3021 RMK AO2A SLP254 60001 T10331034 52011

EXPIRED METARs :
  • 080850Z 00000KT 9SM OVC014 M03/M03 A3021 RMK AO2A SLP254
  • 080800Z 00000KT 8SM OVC015 M03/M04 A3020 RMK AO2A SLP251
  • 080716Z 12003KT 4SM -SN BR BKN013 OVC019 M04/M04 A3020 RMK AO2A CIG 013V017 SLP251
  • 080701Z 00000KT 2 3/4SM -SN BR OVC017 M04/M04 A3020 RMK AO2A VIS 2 1/4V2 3/4 CIG 016V022 BKN V SCT CIG 014 RWY32 SLP251
  • 080655Z 00000KT 2 1/4SM -SN BR SCT016 BKN021 OVC030 M04/M04 A3020 RMK AO2A CIG 014 RWY32 SLP251 P0001 T10361037 410171075

TAF TAF KHIF
Valid from the 08 at 06:00 until the 09 at 12:00 UTC


080557Z 0806/0912 11009KT 9000 BR BKN015 620159 QNH3016INS
TEMPO 0806/0809 4800 -SN BKN009 620099
BECMG 0808/0809 11009KT 9999 NSW BKN020 QNH3018INS
BECMG 0816/0817 11010KT 9999 FEW030 BKN050 QNH3014INS
BECMG 0822/0823 11009KT 9999 FEW050 QNH3000INS
BECMG 0909/0910 14006KT 9999 BKN050 QNH2993INS TX01/0822Z TNM06/0814Z
KZLC FIR / North America



MET'MAP, your aeronautical weather chart ! - Copyright ORBIFLY December 2007 - Disclaimer

ORBIFLY MET'MAP TEAM :

Programming & Development : Alexandra Zaïnal
Original concept : Baudouin d'Aumeries
Technical & hardware support : Manuel Goepfert
Assistance : Marc-Olivier Méhu




SOURCES & CREDITS :

   NOAA       Earth
Advisory